Speedway, Indiana
Current Conditions -  °F | °C
As of 2:53 AM on Thursday 27 Nov 2014 (Local Time) from KEYE Reporting Station
Overcast Overcast  
Wind Chill: 19°   Ceiling: 1900
Heat Index: 28°   Visibility: 10mi
Dew Point: 21°   Wind: 10mph
Humidity: 75%   Direction: 350°N
Pressure: 30.14"   Gusts: NA
Location:  39.79°N, 86.25°W
Report Text: KEYE 270753Z AUTO 35009KT 10SM OVC019 M02/M06 A3014 RMK AO2 SLP216 T10221061
Loading
Personal Weather Stations






























Interactive Weather Map New forecast layout! Learn more

10-Day Weather Forecast

Advertisements
Track Severe Weather on mobile